地図

経路データ

SID SEASON NUMBER BASIN SUBBASIN NAME ISO_TIME NATURE LAT LON WMO_WIND WMO_PRES WMO_AGENCY TRACK_TYPE DIST2LAND LANDFALL IFLAG USA_AGENCY USA_ATCF_ID USA_LAT USA_LON USA_RECORD USA_STATUS USA_WIND USA_PRES USA_SSHS USA_R34_NE USA_R34_SE USA_R34_SW USA_R34_NW USA_R50_NE USA_R50_SE USA_R50_SW USA_R50_NW USA_R64_NE USA_R64_SE USA_R64_SW USA_R64_NW USA_POCI USA_ROCI USA_RMW USA_EYE TOKYO_LAT TOKYO_LON TOKYO_GRADE TOKYO_WIND TOKYO_PRES TOKYO_R50_DIR TOKYO_R50_LONG TOKYO_R50_SHORT TOKYO_R30_DIR TOKYO_R30_LONG TOKYO_R30_SHORT TOKYO_LAND CMA_LAT CMA_LON CMA_CAT CMA_WIND CMA_PRES HKO_LAT HKO_LON HKO_CAT HKO_WIND HKO_PRES NEWDELHI_LAT NEWDELHI_LON NEWDELHI_GRADE NEWDELHI_WIND NEWDELHI_PRES NEWDELHI_CI NEWDELHI_DP NEWDELHI_POCI REUNION_LAT REUNION_LON REUNION_TYPE REUNION_WIND REUNION_PRES REUNION_TNUM REUNION_CI REUNION_RMW REUNION_R34_NE REUNION_R34_SE REUNION_R34_SW REUNION_R34_NW REUNION_R50_NE REUNION_R50_SE REUNION_R50_SW REUNION_R50_NW REUNION_R64_NE REUNION_R64_SE REUNION_R64_SW REUNION_R64_NW BOM_LAT BOM_LON BOM_TYPE BOM_WIND BOM_PRES BOM_TNUM BOM_CI BOM_RMW BOM_R34_NE BOM_R34_SE BOM_R34_SW BOM_R34_NW BOM_R50_NE BOM_R50_SE BOM_R50_SW BOM_R50_NW BOM_R64_NE BOM_R64_SE BOM_R64_SW BOM_R64_NW BOM_ROCI BOM_POCI BOM_EYE BOM_POS_METHOD BOM_PRES_METHOD NADI_LAT NADI_LON NADI_CAT NADI_WIND NADI_PRES WELLINGTON_LAT WELLINGTON_LON WELLINGTON_WIND WELLINGTON_PRES DS824_LAT DS824_LON DS824_STAGE DS824_WIND DS824_PRES TD9636_LAT TD9636_LON TD9636_STAGE TD9636_WIND TD9636_PRES TD9635_LAT TD9635_LON TD9635_WIND TD9635_PRES TD9635_ROCI NEUMANN_LAT NEUMANN_LON NEUMANN_CLASS NEUMANN_WIND NEUMANN_PRES MLC_LAT MLC_LON MLC_CLASS MLC_WIND MLC_PRES USA_GUST BOM_GUST BOM_GUST_PER REUNION_GUST REUNION_GUST_PER USA_SEAHGT USA_SEARAD_NE USA_SEARAD_SE USA_SEARAD_SW USA_SEARAD_NW STORM_SPEED STORM_DIR
1966045S15042 1966 12 SI MM GERMAINE 1966-02-14 06:00:00 TS -14.9000 41.7000 reunion main 97 97 _____O______O_ -1 -14.9000 41.7000 2 9.90000 -14.9000 41.7000 TC 30 3 111
1966045S15042 1966 12 SI MM GERMAINE 1966-02-14 09:00:00 TS -14.9525 41.8400 main 107 107 _____P______P_ -1 -14.9525 41.8400 2 -14.9525 41.8400 TC 30 3 109
1966045S15042 1966 12 SI MM GERMAINE 1966-02-14 12:00:00 TS -15.0000 42.0000 reunion main 128 128 _____O______O_ -1 -15.0000 42.0000 99 9.90000 -15.0000 42.0000 TC 30 4 105
1966045S15042 1966 12 SI MM GERMAINE 1966-02-14 15:00:00 TS -15.0425 42.1925 main 150 150 _____P______P_ -1 -15.0425 42.1925 99 -15.0425 42.1925 TC 30 6 95
1966045S15042 1966 12 SI MM GERMAINE 1966-02-14 18:00:00 TS -15.0455 42.5909 reunion main 193 193 O____O___OO_O_ jtwc_sh SH241966 -14.9000 43.1000 -1 -15.1000 42.4000 99 9.90000 -14.9000 43.1000 TC -14.9000 43.1000 7 -15.1000 42.4000 TC 30 6 91
1966045S15042 1966 12 SI MM GERMAINE 1966-02-14 21:00:00 TS -15.0490 42.7709 main 214 214 P____P___PP_P_ SH241966 -14.8675 42.9550 -1 -15.1700 42.6300 99 -14.8675 42.9550 TC -14.9280 42.9667 7 -15.1700 42.6300 TC 30 2 106
1966045S15042 1966 12 SI MM GERMAINE 1966-02-15 00:00:00 TS -15.1032 42.8030 reunion main 215 205 O____O___OP_O_ jtwc_sh SH241966 -14.9000 42.8000 -1 -15.3000 42.8000 99 9.90000 -14.9000 42.8000 TC -14.9848 42.8168 7 -15.3000 42.8000 TC 30 2 195
1966045S15042 1966 12 SI MM GERMAINE 1966-02-15 03:00:00 TS -15.2438 42.7137 main 205 198 P____P___PP_P_ SH241966 -15.0475 42.6224 -1 -15.5125 42.8450 99 -15.0475 42.6224 TC -15.0992 42.6335 7 -15.5125 42.8450 TC 30 5 211
1966045S15042 1966 12 SI MM GERMAINE 1966-02-15 06:00:00 TS -15.5000 42.5600 reunion main 201 188 O____O___OO_O_ jtwc_sh SH241966 -15.3000 42.4000 -1 -15.8000 42.8000 2 9.90000 -15.3000 42.4000 TC 25 -15.3000 42.4000 1 -15.8000 42.8000 TC 30 7 210
1966045S15042 1966 12 SI MM GERMAINE 1966-02-15 09:00:00 TS -15.8288 42.3623 main 193 183 P____P___PP_P_ SH241966 -15.6200 42.1225 -1 -16.1500 42.7300 2 -15.6200 42.1225 TC 25 -15.6043 42.1066 1 -16.1500 42.7300 TC 30 8 212
1966045S15042 1966 12 SI MM GERMAINE 1966-02-15 12:00:00 TS -16.1966 42.1147 reunion main 183 178 O____O___OP_O_ jtwc_sh SH241966 -16.0000 41.8000 -1 -16.5000 42.6000 99 9.90000 -16.0000 41.8000 TC 25 -15.9829 41.7734 1 -16.5000 42.6000 TC 30 9 215
1966045S15042 1966 12 SI MM GERMAINE 1966-02-15 15:00:00 TS -16.5360 41.8406 main 174 171 P____P___PP_P_ SH241966 -16.4000 41.4426 -1 -16.7424 42.4447 99 -16.4000 41.4426 TC 25 -16.3949 41.4284 1 -16.7424 42.4447 TC 30 9 219
1966045S15042 1966 12 SI MM GERMAINE 1966-02-15 18:00:00 TS -16.8800 41.5400 reunion main 177 168 O____O___OO_O_ jtwc_sh SH241966 -16.8000 41.1000 -1 -17.0000 42.2000 99 9.90000 -16.8000 41.1000 TC 25 -16.8000 41.1000 1 -17.0000 42.2000 TC 30 9 219
1966045S15042 1966 12 SI MM GERMAINE 1966-02-15 21:00:00 TS -17.2434 41.2318 main 168 164 P____P___PP_P_ SH241966 -17.1649 40.8348 -1 -17.3701 41.8226 99 -17.1649 40.8348 TC 25 -17.1471 40.8440 1 -17.3701 41.8226 TC 30 9 219
1966045S15042 1966 12 SI MM GERMAINE 1966-02-16 00:00:00 TS -17.6159 40.9213 reunion main 169 169 O____O___OP_O_ jtwc_sh SH241966 -17.5000 40.6000 -1 -17.8000 41.4000 99 9.90000 -17.5000 40.6000 TC 25 -17.4794 40.6066 1 -17.8000 41.4000 TC 30 9 217
1966045S15042 1966 12 SI MM GERMAINE 1966-02-16 03:00:00 TS -17.9973 40.6361 main 188 188 P____P___PP_P_ SH241966 -17.8074 40.3648 -1 -18.2874 41.0426 99 -17.8074 40.3648 TC 25 -17.7971 40.3659 1 -18.2874 41.0426 TC 32 9 217
1966045S15042 1966 12 SI MM GERMAINE 1966-02-16 06:00:00 TS -18.3400 40.3400 reunion main 193 193 O____O___OO_O_ jtwc_sh SH241966 -18.1000 40.1000 -1 -18.7000 40.7000 2 9.90000 -18.1000 40.1000 TC 25 -18.1000 40.1000 1 -18.7000 40.7000 TC 35 9 225
1966045S15042 1966 12 SI MM GERMAINE 1966-02-16 09:00:00 TS -18.6043 40.0062 main 202 198 P____P___PP_P_ SH241966 -18.4075 39.7650 -1 -18.9024 40.3572 2 -18.4075 39.7650 TC 25 -18.4015 39.7868 1 -18.9024 40.3572 TC 32 8 234
1966045S15042 1966 12 SI MM GERMAINE 1966-02-16 12:00:00 TS -18.8175 39.6490 reunion main 208 208 O____O___OP_O_ jtwc_sh SH241966 -18.7000 39.4000 -1 -19.0000 40.0000 99 9.90000 -18.7000 39.4000 TC 25 -18.6873 39.4448 1 -19.0000 40.0000 TC 30 8 240
1966045S15042 1966 12 SI MM GERMAINE 1966-02-16 15:00:00 TS -19.0109 39.2700 main 221 219 P____P___PP_P_ SH241966 -18.9649 39.0574 -1 -19.0851 39.5774 99 -18.9649 39.0574 TC 30 -18.9545 39.0805 1 -19.0851 39.5774 TC 27 8 242
1966045S15042 1966 12 SI MM GERMAINE 1966-02-16 18:00:00 TS -19.2000 38.9000 reunion main 228 222 O____O___OO_O_ jtwc_sh SH241966 -19.2000 38.7000 -1 -19.2000 39.2000 99 9.90000 -19.2000 38.7000 TC 35 -19.2000 38.7000 2 -19.2000 39.2000 TC 25 8 238
1966045S15042 1966 12 SI MM GERMAINE 1966-02-16 21:00:00 TS -19.4243 38.5787 main 222 214 P____P___PP_P_ SH241966 -19.4075 38.3074 -1 -19.4423 38.9849 99 -19.4075 38.3074 TC 35 -19.4222 38.3091 2 -19.4423 38.9849 TC 25 8 234
1966045S15042 1966 12 SI MM GERMAINE 1966-02-17 00:00:00 TS -19.6451 38.2621 reunion main 214 195 O____O___OP_O_ jtwc_sh SH241966 -19.6000 37.9000 -1 -19.7000 38.8000 99 9.90000 -19.6000 37.9000 TC 35 -19.6257 37.9106 2 -19.7000 38.8000 TC 25 8 237
1966045S15042 1966 12 SI MM GERMAINE 1966-02-17 03:00:00 TS -19.8334 37.9125 main 195 183 P____P___PP_P_ SH241966 -19.7977 37.4977 -1 -19.8777 38.5301 99 -19.7977 37.4977 TC 35 -19.8163 37.5068 2 -19.8777 38.5301 TC 25 8 242
1966045S15042 1966 12 SI MM GERMAINE 1966-02-17 06:00:00 TS -20.0000 37.5400 reunion main 175 O____O___OO_O_ jtwc_sh SH241966 -20.0000 37.1000 -1 -20.0000 38.2000 6 9.90000 -20.0000 37.1000 TC 35 -20.0000 37.1000 2 -20.0000 38.2000 TC 25 8 245

IBTrACS Databaseについて

本データベースは、米国NOAAが公開する1842年以降の世界の熱帯低気圧のベストトラックデータアーカイブInternational Best Track Archive for Climate Stewardship (IBTrACS)を、ウェブで閲覧しやすい形式に変換したものです。

最終更新日:2021-11-26